sensor_id;sensor_type;location;lat;lon;timestamp;P1;durP1;ratioP1;P2;durP2;ratioP2
22490;SDS011;11412;50.802;4.350;2023-06-14T00:00:40;5.78;;;4.43;;
22490;SDS011;11412;50.802;4.350;2023-06-14T00:03:06;5.18;;;4.65;;
22490;SDS011;11412;50.802;4.350;2023-06-14T00:05:35;6.45;;;4.72;;
22490;SDS011;11412;50.802;4.350;2023-06-14T00:08:06;4.78;;;4.20;;
22490;SDS011;11412;50.802;4.350;2023-06-14T00:10:35;5.25;;;4.75;;
22490;SDS011;11412;50.802;4.350;2023-06-14T00:13:02;5.15;;;4.63;;
22490;SDS011;11412;50.802;4.350;2023-06-14T00:15:29;5.32;;;4.60;;
22490;SDS011;11412;50.802;4.350;2023-06-14T00:17:56;6.68;;;4.13;;
22490;SDS011;11412;50.802;4.350;2023-06-14T00:20:25;8.20;;;4.60;;
22490;SDS011;11412;50.802;4.350;2023-06-14T00:22:52;4.65;;;4.30;;
22490;SDS011;11412;50.802;4.350;2023-06-14T00:25:17;6.20;;;5.00;;
22490;SDS011;11412;50.802;4.350;2023-06-14T00:27:43;6.20;;;4.47;;
22490;SDS011;11412;50.802;4.350;2023-06-14T00:30:09;4.88;;;4.38;;
22490;SDS011;11412;50.802;4.350;2023-06-14T00:32:35;5.50;;;5.00;;
22490;SDS011;11412;50.802;4.350;2023-06-14T00:35:00;5.65;;;5.15;;
22490;SDS011;11412;50.802;4.350;2023-06-14T00:37:26;5.28;;;4.65;;
22490;SDS011;11412;50.802;4.350;2023-06-14T00:39:52;5.53;;;5.03;;
22490;SDS011;11412;50.802;4.350;2023-06-14T00:42:24;5.90;;;5.00;;
22490;SDS011;11412;50.802;4.350;2023-06-14T00:44:54;7.30;;;4.82;;
22490;SDS011;11412;50.802;4.350;2023-06-14T00:47:20;6.65;;;4.90;;
22490;SDS011;11412;50.802;4.350;2023-06-14T00:49:46;5.20;;;4.80;;
22490;SDS011;11412;50.802;4.350;2023-06-14T00:52:16;5.70;;;4.78;;
22490;SDS011;11412;50.802;4.350;2023-06-14T00:54:43;6.40;;;4.63;;
22490;SDS011;11412;50.802;4.350;2023-06-14T00:57:12;5.70;;;4.65;;
22490;SDS011;11412;50.802;4.350;2023-06-14T00:59:42;5.82;;;4.55;;
22490;SDS011;11412;50.802;4.350;2023-06-14T01:02:09;5.25;;;4.68;;
22490;SDS011;11412;50.802;4.350;2023-06-14T01:04:35;9.95;;;5.28;;
22490;SDS011;11412;50.802;4.350;2023-06-14T01:07:07;4.95;;;4.55;;
22490;SDS011;11412;50.802;4.350;2023-06-14T01:15:28;6.82;;;5.25;;
22490;SDS011;11412;50.802;4.350;2023-06-14T01:17:56;5.22;;;4.82;;
22490;SDS011;11412;50.802;4.350;2023-06-14T01:20:28;5.00;;;4.53;;
22490;SDS011;11412;50.802;4.350;2023-06-14T01:22:55;5.38;;;4.88;;
22490;SDS011;11412;50.802;4.350;2023-06-14T01:25:21;8.75;;;4.63;;
22490;SDS011;11412;50.802;4.350;2023-06-14T01:27:48;5.68;;;5.13;;
22490;SDS011;11412;50.802;4.350;2023-06-14T01:30:21;6.13;;;5.55;;
22490;SDS011;11412;50.802;4.350;2023-06-14T01:32:50;6.60;;;4.82;;
22490;SDS011;11412;50.802;4.350;2023-06-14T01:35:17;5.75;;;5.03;;
22490;SDS011;11412;50.802;4.350;2023-06-14T01:37:43;5.55;;;4.57;;
22490;SDS011;11412;50.802;4.350;2023-06-14T01:40:11;7.78;;;4.78;;
22490;SDS011;11412;50.802;4.350;2023-06-14T01:42:37;5.65;;;5.20;;
22490;SDS011;11412;50.802;4.350;2023-06-14T01:45:04;5.32;;;4.60;;
22490;SDS011;11412;50.802;4.350;2023-06-14T01:47:31;5.50;;;4.72;;
22490;SDS011;11412;50.802;4.350;2023-06-14T01:49:57;6.18;;;5.05;;
22490;SDS011;11412;50.802;4.350;2023-06-14T01:52:23;5.20;;;4.75;;
22490;SDS011;11412;50.802;4.350;2023-06-14T01:54:50;5.50;;;5.00;;
22490;SDS011;11412;50.802;4.350;2023-06-14T01:57:16;6.10;;;5.22;;
22490;SDS011;11412;50.802;4.350;2023-06-14T01:59:42;7.07;;;5.20;;
22490;SDS011;11412;50.802;4.350;2023-06-14T02:02:07;9.88;;;5.70;;
22490;SDS011;11412;50.802;4.350;2023-06-14T02:04:33;6.80;;;5.30;;
22490;SDS011;11412;50.802;4.350;2023-06-14T02:06:59;5.88;;;5.05;;
22490;SDS011;11412;50.802;4.350;2023-06-14T02:09:25;5.93;;;5.10;;
22490;SDS011;11412;50.802;4.350;2023-06-14T02:11:50;5.60;;;5.10;;
22490;SDS011;11412;50.802;4.350;2023-06-14T02:14:16;6.75;;;5.57;;
22490;SDS011;11412;50.802;4.350;2023-06-14T02:16:42;7.80;;;5.40;;
22490;SDS011;11412;50.802;4.350;2023-06-14T02:19:16;11.95;;;5.75;;
22490;SDS011;11412;50.802;4.350;2023-06-14T02:21:43;5.40;;;4.90;;
22490;SDS011;11412;50.802;4.350;2023-06-14T02:24:09;6.15;;;5.22;;
22490;SDS011;11412;50.802;4.350;2023-06-14T02:26:35;6.13;;;5.63;;
22490;SDS011;11412;50.802;4.350;2023-06-14T02:29:03;6.22;;;5.40;;
22490;SDS011;11412;50.802;4.350;2023-06-14T02:31:30;6.35;;;5.28;;
22490;SDS011;11412;50.802;4.350;2023-06-14T02:34:00;7.75;;;5.18;;
22490;SDS011;11412;50.802;4.350;2023-06-14T02:36:26;6.47;;;5.38;;
22490;SDS011;11412;50.802;4.350;2023-06-14T02:38:51;8.63;;;5.68;;
22490;SDS011;11412;50.802;4.350;2023-06-14T02:41:19;8.38;;;5.60;;
22490;SDS011;11412;50.802;4.350;2023-06-14T02:43:44;6.43;;;5.82;;
22490;SDS011;11412;50.802;4.350;2023-06-14T02:46:10;5.82;;;5.25;;
22490;SDS011;11412;50.802;4.350;2023-06-14T02:48:36;9.20;;;5.47;;
22490;SDS011;11412;50.802;4.350;2023-06-14T02:51:02;9.68;;;5.75;;
22490;SDS011;11412;50.802;4.350;2023-06-14T02:53:27;6.63;;;5.50;;
22490;SDS011;11412;50.802;4.350;2023-06-14T02:55:53;7.78;;;6.43;;
22490;SDS011;11412;50.802;4.350;2023-06-14T02:58:20;6.63;;;5.97;;
22490;SDS011;11412;50.802;4.350;2023-06-14T03:00:46;6.75;;;5.78;;
22490;SDS011;11412;50.802;4.350;2023-06-14T03:03:12;9.65;;;5.85;;
22490;SDS011;11412;50.802;4.350;2023-06-14T03:05:41;6.88;;;6.18;;
22490;SDS011;11412;50.802;4.350;2023-06-14T03:08:13;7.70;;;6.55;;
22490;SDS011;11412;50.802;4.350;2023-06-14T03:10:45;8.30;;;6.43;;
22490;SDS011;11412;50.802;4.350;2023-06-14T03:13:11;11.55;;;5.88;;
22490;SDS011;11412;50.802;4.350;2023-06-14T03:15:38;7.20;;;6.50;;
22490;SDS011;11412;50.802;4.350;2023-06-14T03:18:07;9.50;;;6.43;;
22490;SDS011;11412;50.802;4.350;2023-06-14T03:20:34;7.57;;;5.90;;
22490;SDS011;11412;50.802;4.350;2023-06-14T03:23:03;6.63;;;6.00;;
22490;SDS011;11412;50.802;4.350;2023-06-14T03:25:31;7.00;;;6.20;;
22490;SDS011;11412;50.802;4.350;2023-06-14T03:27:58;7.22;;;5.82;;
22490;SDS011;11412;50.802;4.350;2023-06-14T03:30:24;9.02;;;6.07;;
22490;SDS011;11412;50.802;4.350;2023-06-14T03:32:49;9.20;;;6.47;;
22490;SDS011;11412;50.802;4.350;2023-06-14T03:35:17;7.68;;;5.78;;
22490;SDS011;11412;50.802;4.350;2023-06-14T03:37:44;10.98;;;6.70;;
22490;SDS011;11412;50.802;4.350;2023-06-14T03:40:11;8.20;;;6.43;;
22490;SDS011;11412;50.802;4.350;2023-06-14T03:42:38;7.63;;;6.30;;
22490;SDS011;11412;50.802;4.350;2023-06-14T03:45:04;6.93;;;6.07;;
22490;SDS011;11412;50.802;4.350;2023-06-14T03:47:31;8.30;;;6.70;;
22490;SDS011;11412;50.802;4.350;2023-06-14T03:49:57;7.88;;;5.75;;
22490;SDS011;11412;50.802;4.350;2023-06-14T03:52:23;7.72;;;6.10;;
22490;SDS011;11412;50.802;4.350;2023-06-14T03:54:49;7.38;;;6.32;;
22490;SDS011;11412;50.802;4.350;2023-06-14T03:57:14;8.90;;;6.60;;
22490;SDS011;11412;50.802;4.350;2023-06-14T03:59:40;10.48;;;6.50;;
22490;SDS011;11412;50.802;4.350;2023-06-14T04:02:06;8.98;;;6.28;;
22490;SDS011;11412;50.802;4.350;2023-06-14T04:04:34;7.28;;;6.57;;
22490;SDS011;11412;50.802;4.350;2023-06-14T04:07:00;7.18;;;6.00;;
22490;SDS011;11412;50.802;4.350;2023-06-14T04:09:28;8.60;;;6.10;;
22490;SDS011;11412;50.802;4.350;2023-06-14T04:11:55;7.22;;;5.97;;
22490;SDS011;11412;50.802;4.350;2023-06-14T04:14:21;10.38;;;6.68;;
22490;SDS011;11412;50.802;4.350;2023-06-14T04:16:47;10.73;;;6.72;;
22490;SDS011;11412;50.802;4.350;2023-06-14T04:19:14;7.18;;;6.35;;
22490;SDS011;11412;50.802;4.350;2023-06-14T04:21:41;8.32;;;6.25;;
22490;SDS011;11412;50.802;4.350;2023-06-14T04:24:07;6.18;;;5.55;;
22490;SDS011;11412;50.802;4.350;2023-06-14T04:26:38;7.13;;;6.35;;
22490;SDS011;11412;50.802;4.350;2023-06-14T04:29:04;10.00;;;6.28;;
22490;SDS011;11412;50.802;4.350;2023-06-14T04:31:30;6.88;;;6.28;;
22490;SDS011;11412;50.802;4.350;2023-06-14T04:33:59;7.50;;;6.47;;
22490;SDS011;11412;50.802;4.350;2023-06-14T04:36:25;8.88;;;6.90;;
22490;SDS011;11412;50.802;4.350;2023-06-14T04:38:53;12.18;;;6.35;;
22490;SDS011;11412;50.802;4.350;2023-06-14T04:41:21;9.20;;;6.07;;
22490;SDS011;11412;50.802;4.350;2023-06-14T04:43:48;6.57;;;5.97;;
22490;SDS011;11412;50.802;4.350;2023-06-14T04:46:15;7.40;;;6.57;;
22490;SDS011;11412;50.802;4.350;2023-06-14T04:48:42;8.38;;;7.13;;
22490;SDS011;11412;50.802;4.350;2023-06-14T04:51:08;10.30;;;6.30;;
22490;SDS011;11412;50.802;4.350;2023-06-14T04:53:34;8.27;;;6.70;;
22490;SDS011;11412;50.802;4.350;2023-06-14T04:56:00;8.02;;;6.30;;
22490;SDS011;11412;50.802;4.350;2023-06-14T04:58:26;19.27;;;7.40;;
22490;SDS011;11412;50.802;4.350;2023-06-14T05:00:53;8.40;;;6.38;;
22490;SDS011;11412;50.802;4.350;2023-06-14T05:03:21;10.70;;;7.40;;
22490;SDS011;11412;50.802;4.350;2023-06-14T05:05:49;6.45;;;5.70;;
22490;SDS011;11412;50.802;4.350;2023-06-14T05:08:16;7.80;;;6.25;;
22490;SDS011;11412;50.802;4.350;2023-06-14T05:10:42;10.77;;;7.32;;
22490;SDS011;11412;50.802;4.350;2023-06-14T05:13:07;8.27;;;6.55;;
22490;SDS011;11412;50.802;4.350;2023-06-14T05:15:33;7.80;;;6.55;;
22490;SDS011;11412;50.802;4.350;2023-06-14T05:17:59;8.27;;;6.20;;
22490;SDS011;11412;50.802;4.350;2023-06-14T05:20:25;9.50;;;6.65;;
22490;SDS011;11412;50.802;4.350;2023-06-14T05:22:54;8.20;;;7.18;;
22490;SDS011;11412;50.802;4.350;2023-06-14T05:25:21;7.60;;;6.75;;
22490;SDS011;11412;50.802;4.350;2023-06-14T05:27:48;7.88;;;6.60;;
22490;SDS011;11412;50.802;4.350;2023-06-14T05:30:14;10.45;;;7.57;;
22490;SDS011;11412;50.802;4.350;2023-06-14T05:32:40;11.88;;;6.60;;
22490;SDS011;11412;50.802;4.350;2023-06-14T05:35:06;8.07;;;7.03;;
22490;SDS011;11412;50.802;4.350;2023-06-14T05:37:32;10.35;;;7.10;;
22490;SDS011;11412;50.802;4.350;2023-06-14T05:39:58;10.35;;;6.72;;
22490;SDS011;11412;50.802;4.350;2023-06-14T05:42:24;9.82;;;6.95;;
22490;SDS011;11412;50.802;4.350;2023-06-14T05:44:49;11.30;;;6.43;;
22490;SDS011;11412;50.802;4.350;2023-06-14T05:47:15;10.65;;;6.68;;
22490;SDS011;11412;50.802;4.350;2023-06-14T05:49:41;9.50;;;6.90;;
22490;SDS011;11412;50.802;4.350;2023-06-14T05:52:07;8.32;;;6.90;;
22490;SDS011;11412;50.802;4.350;2023-06-14T05:54:33;7.72;;;6.85;;
22490;SDS011;11412;50.802;4.350;2023-06-14T05:56:59;15.05;;;7.10;;
22490;SDS011;11412;50.802;4.350;2023-06-14T05:59:29;8.70;;;7.25;;
22490;SDS011;11412;50.802;4.350;2023-06-14T06:01:55;7.50;;;6.60;;
22490;SDS011;11412;50.802;4.350;2023-06-14T06:04:21;7.47;;;6.38;;
22490;SDS011;11412;50.802;4.350;2023-06-14T06:06:48;11.80;;;6.72;;
22490;SDS011;11412;50.802;4.350;2023-06-14T06:09:13;9.15;;;6.13;;
22490;SDS011;11412;50.802;4.350;2023-06-14T06:11:39;7.65;;;6.25;;
22490;SDS011;11412;50.802;4.350;2023-06-14T06:14:05;7.55;;;6.70;;
22490;SDS011;11412;50.802;4.350;2023-06-14T06:16:31;6.97;;;6.30;;
22490;SDS011;11412;50.802;4.350;2023-06-14T06:18:58;10.93;;;6.63;;
22490;SDS011;11412;50.802;4.350;2023-06-14T06:21:24;10.40;;;6.57;;
22490;SDS011;11412;50.802;4.350;2023-06-14T06:23:50;8.10;;;6.32;;
22490;SDS011;11412;50.802;4.350;2023-06-14T06:26:16;7.90;;;6.07;;
22490;SDS011;11412;50.802;4.350;2023-06-14T06:28:42;10.13;;;6.40;;
22490;SDS011;11412;50.802;4.350;2023-06-14T06:31:07;8.65;;;5.80;;
22490;SDS011;11412;50.802;4.350;2023-06-14T06:33:33;12.25;;;5.95;;
22490;SDS011;11412;50.802;4.350;2023-06-14T06:35:59;8.52;;;6.30;;
22490;SDS011;11412;50.802;4.350;2023-06-14T06:38:24;7.28;;;6.30;;
22490;SDS011;11412;50.802;4.350;2023-06-14T06:40:50;10.60;;;6.05;;
22490;SDS011;11412;50.802;4.350;2023-06-14T06:43:16;6.55;;;5.95;;
22490;SDS011;11412;50.802;4.350;2023-06-14T06:45:42;8.95;;;6.07;;
22490;SDS011;11412;50.802;4.350;2023-06-14T06:48:08;7.00;;;6.38;;
22490;SDS011;11412;50.802;4.350;2023-06-14T06:50:36;7.45;;;5.75;;
22490;SDS011;11412;50.802;4.350;2023-06-14T06:53:02;7.32;;;6.00;;
22490;SDS011;11412;50.802;4.350;2023-06-14T06:55:28;9.05;;;5.97;;
22490;SDS011;11412;50.802;4.350;2023-06-14T06:57:53;10.40;;;5.50;;
22490;SDS011;11412;50.802;4.350;2023-06-14T07:00:19;6.95;;;5.90;;
22490;SDS011;11412;50.802;4.350;2023-06-14T07:02:46;10.50;;;5.85;;
22490;SDS011;11412;50.802;4.350;2023-06-14T07:05:12;8.48;;;6.07;;
22490;SDS011;11412;50.802;4.350;2023-06-14T07:07:38;11.18;;;5.85;;
22490;SDS011;11412;50.802;4.350;2023-06-14T07:10:04;8.23;;;5.88;;
22490;SDS011;11412;50.802;4.350;2023-06-14T07:12:31;7.25;;;5.80;;
22490;SDS011;11412;50.802;4.350;2023-06-14T07:14:58;10.00;;;5.90;;
22490;SDS011;11412;50.802;4.350;2023-06-14T07:17:24;8.10;;;5.30;;
22490;SDS011;11412;50.802;4.350;2023-06-14T07:19:50;9.93;;;6.13;;
22490;SDS011;11412;50.802;4.350;2023-06-14T07:22:16;5.90;;;5.18;;
22490;SDS011;11412;50.802;4.350;2023-06-14T07:24:42;7.28;;;5.45;;
22490;SDS011;11412;50.802;4.350;2023-06-14T07:27:08;6.68;;;5.63;;
22490;SDS011;11412;50.802;4.350;2023-06-14T07:29:34;14.68;;;5.50;;
22490;SDS011;11412;50.802;4.350;2023-06-14T07:32:00;10.25;;;5.70;;
22490;SDS011;11412;50.802;4.350;2023-06-14T07:34:26;7.78;;;5.60;;
22490;SDS011;11412;50.802;4.350;2023-06-14T07:36:52;6.40;;;5.22;;
22490;SDS011;11412;50.802;4.350;2023-06-14T07:39:19;6.13;;;4.90;;
22490;SDS011;11412;50.802;4.350;2023-06-14T07:41:45;5.60;;;4.97;;
22490;SDS011;11412;50.802;4.350;2023-06-14T07:44:10;5.85;;;4.97;;
22490;SDS011;11412;50.802;4.350;2023-06-14T07:46:37;7.15;;;5.13;;
22490;SDS011;11412;50.802;4.350;2023-06-14T07:49:03;6.13;;;4.85;;
22490;SDS011;11412;50.802;4.350;2023-06-14T07:51:30;5.30;;;4.80;;
22490;SDS011;11412;50.802;4.350;2023-06-14T07:53:55;5.72;;;5.15;;
22490;SDS011;11412;50.802;4.350;2023-06-14T07:56:21;9.40;;;5.28;;
22490;SDS011;11412;50.802;4.350;2023-06-14T07:58:48;15.52;;;4.95;;
22490;SDS011;11412;50.802;4.350;2023-06-14T08:01:13;5.78;;;4.95;;
22490;SDS011;11412;50.802;4.350;2023-06-14T08:03:40;7.80;;;5.03;;
22490;SDS011;11412;50.802;4.350;2023-06-14T08:06:06;7.43;;;5.13;;
22490;SDS011;11412;50.802;4.350;2023-06-14T08:08:32;8.50;;;5.20;;
22490;SDS011;11412;50.802;4.350;2023-06-14T08:10:58;7.85;;;5.18;;
22490;SDS011;11412;50.802;4.350;2023-06-14T08:13:24;5.90;;;4.68;;
22490;SDS011;11412;50.802;4.350;2023-06-14T08:15:49;7.30;;;5.03;;
22490;SDS011;11412;50.802;4.350;2023-06-14T08:18:16;8.75;;;5.13;;
22490;SDS011;11412;50.802;4.350;2023-06-14T08:20:41;5.47;;;4.63;;
22490;SDS011;11412;50.802;4.350;2023-06-14T08:23:07;6.13;;;5.53;;
22490;SDS011;11412;50.802;4.350;2023-06-14T08:25:34;5.75;;;4.72;;
22490;SDS011;11412;50.802;4.350;2023-06-14T08:27:59;7.15;;;4.43;;
22490;SDS011;11412;50.802;4.350;2023-06-14T08:30:25;8.13;;;4.90;;
22490;SDS011;11412;50.802;4.350;2023-06-14T08:32:51;11.07;;;4.93;;
22490;SDS011;11412;50.802;4.350;2023-06-14T08:35:20;10.02;;;5.57;;
22490;SDS011;11412;50.802;4.350;2023-06-14T08:37:46;5.90;;;4.75;;
22490;SDS011;11412;50.802;4.350;2023-06-14T08:42:53;8.55;;;4.93;;
22490;SDS011;11412;50.802;4.350;2023-06-14T08:45:23;9.52;;;4.72;;
22490;SDS011;11412;50.802;4.350;2023-06-14T08:47:50;6.22;;;4.45;;
22490;SDS011;11412;50.802;4.350;2023-06-14T08:50:20;6.95;;;5.20;;
22490;SDS011;11412;50.802;4.350;2023-06-14T08:55:18;7.68;;;5.10;;
22490;SDS011;11412;50.802;4.350;2023-06-14T08:57:46;7.30;;;5.22;;
22490;SDS011;11412;50.802;4.350;2023-06-14T09:00:14;5.28;;;4.82;;
22490;SDS011;11412;50.802;4.350;2023-06-14T09:02:40;7.55;;;5.22;;
22490;SDS011;11412;50.802;4.350;2023-06-14T09:05:11;8.45;;;5.03;;
22490;SDS011;11412;50.802;4.350;2023-06-14T09:07:41;7.07;;;4.90;;
22490;SDS011;11412;50.802;4.350;2023-06-14T09:12:37;7.63;;;5.07;;
22490;SDS011;11412;50.802;4.350;2023-06-14T09:15:04;7.05;;;5.63;;
22490;SDS011;11412;50.802;4.350;2023-06-14T09:17:37;7.38;;;5.13;;
22490;SDS011;11412;50.802;4.350;2023-06-14T09:20:04;8.23;;;5.60;;
22490;SDS011;11412;50.802;4.350;2023-06-14T09:22:43;5.47;;;4.88;;
22490;SDS011;11412;50.802;4.350;2023-06-14T09:25:09;7.28;;;5.07;;
22490;SDS011;11412;50.802;4.350;2023-06-14T09:27:37;7.28;;;4.95;;
22490;SDS011;11412;50.802;4.350;2023-06-14T09:30:05;10.68;;;4.95;;
22490;SDS011;11412;50.802;4.350;2023-06-14T09:32:37;5.50;;;5.00;;
22490;SDS011;11412;50.802;4.350;2023-06-14T09:35:05;7.40;;;5.00;;
22490;SDS011;11412;50.802;4.350;2023-06-14T09:37:32;10.15;;;4.85;;
22490;SDS011;11412;50.802;4.350;2023-06-14T09:39:59;10.18;;;5.38;;
22490;SDS011;11412;50.802;4.350;2023-06-14T09:42:25;6.35;;;5.05;;
22490;SDS011;11412;50.802;4.350;2023-06-14T09:44:53;9.05;;;5.07;;
22490;SDS011;11412;50.802;4.350;2023-06-14T09:47:20;8.05;;;5.20;;
22490;SDS011;11412;50.802;4.350;2023-06-14T09:49:46;9.30;;;6.25;;
22490;SDS011;11412;50.802;4.350;2023-06-14T09:52:14;8.02;;;5.18;;
22490;SDS011;11412;50.802;4.350;2023-06-14T09:54:41;10.48;;;4.90;;
22490;SDS011;11412;50.802;4.350;2023-06-14T09:57:10;9.05;;;4.70;;
22490;SDS011;11412;50.802;4.350;2023-06-14T09:59:37;12.10;;;5.13;;
22490;SDS011;11412;50.802;4.350;2023-06-14T10:02:10;9.20;;;4.10;;
22490;SDS011;11412;50.802;4.350;2023-06-14T10:04:44;5.50;;;4.95;;
22490;SDS011;11412;50.802;4.350;2023-06-14T10:07:15;7.65;;;4.70;;
22490;SDS011;11412;50.802;4.350;2023-06-14T10:09:45;8.25;;;5.07;;
22490;SDS011;11412;50.802;4.350;2023-06-14T10:12:16;5.30;;;4.80;;
22490;SDS011;11412;50.802;4.350;2023-06-14T10:14:46;10.60;;;5.15;;
22490;SDS011;11412;50.802;4.350;2023-06-14T10:17:17;7.20;;;4.45;;
22490;SDS011;11412;50.802;4.350;2023-06-14T10:19:54;5.63;;;4.82;;
22490;SDS011;11412;50.802;4.350;2023-06-14T10:22:29;16.95;;;5.60;;
22490;SDS011;11412;50.802;4.350;2023-06-14T10:24:59;10.48;;;5.15;;
22490;SDS011;11412;50.802;4.350;2023-06-14T10:27:26;7.22;;;5.10;;
22490;SDS011;11412;50.802;4.350;2023-06-14T10:32:17;6.45;;;4.60;;
22490;SDS011;11412;50.802;4.350;2023-06-14T10:34:44;10.55;;;5.28;;
22490;SDS011;11412;50.802;4.350;2023-06-14T10:37:11;5.30;;;4.80;;
22490;SDS011;11412;50.802;4.350;2023-06-14T10:39:41;8.93;;;5.75;;
22490;SDS011;11412;50.802;4.350;2023-06-14T10:42:10;8.90;;;4.85;;
22490;SDS011;11412;50.802;4.350;2023-06-14T10:47:25;4.35;;;4.05;;
22490;SDS011;11412;50.802;4.350;2023-06-14T10:49:51;9.25;;;4.50;;
22490;SDS011;11412;50.802;4.350;2023-06-14T10:52:24;6.43;;;3.90;;
22490;SDS011;11412;50.802;4.350;2023-06-14T10:57:31;7.45;;;4.10;;
22490;SDS011;11412;50.802;4.350;2023-06-14T10:59:58;4.78;;;4.25;;
22490;SDS011;11412;50.802;4.350;2023-06-14T11:05:06;4.32;;;4.03;;
22490;SDS011;11412;50.802;4.350;2023-06-14T11:12:49;7.95;;;4.32;;
22490;SDS011;11412;50.802;4.350;2023-06-14T11:15:16;10.02;;;4.25;;
22490;SDS011;11412;50.802;4.350;2023-06-14T11:17:51;5.53;;;4.50;;
22490;SDS011;11412;50.802;4.350;2023-06-14T11:20:24;7.35;;;4.30;;
22490;SDS011;11412;50.802;4.350;2023-06-14T11:22:51;5.38;;;3.90;;
22490;SDS011;11412;50.802;4.350;2023-06-14T11:25:17;8.50;;;4.38;;
22490;SDS011;11412;50.802;4.350;2023-06-14T11:27:43;5.80;;;4.00;;
22490;SDS011;11412;50.802;4.350;2023-06-14T11:30:09;6.55;;;3.80;;
22490;SDS011;11412;50.802;4.350;2023-06-14T11:32:36;4.20;;;3.72;;
22490;SDS011;11412;50.802;4.350;2023-06-14T11:35:03;6.88;;;4.25;;
22490;SDS011;11412;50.802;4.350;2023-06-14T11:37:30;4.60;;;4.15;;
22490;SDS011;11412;50.802;4.350;2023-06-14T11:40:00;4.20;;;3.80;;
22490;SDS011;11412;50.802;4.350;2023-06-14T11:42:26;5.22;;;3.70;;
22490;SDS011;11412;50.802;4.350;2023-06-14T11:44:54;6.25;;;3.88;;
22490;SDS011;11412;50.802;4.350;2023-06-14T11:47:20;5.88;;;3.72;;
22490;SDS011;11412;50.802;4.350;2023-06-14T11:49:46;5.13;;;3.85;;
22490;SDS011;11412;50.802;4.350;2023-06-14T11:52:12;6.65;;;4.25;;
22490;SDS011;11412;50.802;4.350;2023-06-14T11:54:38;13.68;;;4.38;;
22490;SDS011;11412;50.802;4.350;2023-06-14T11:57:05;6.00;;;3.58;;
22490;SDS011;11412;50.802;4.350;2023-06-14T11:59:37;7.22;;;3.92;;
22490;SDS011;11412;50.802;4.350;2023-06-14T12:02:04;3.95;;;3.63;;
22490;SDS011;11412;50.802;4.350;2023-06-14T12:04:31;6.53;;;3.83;;
22490;SDS011;11412;50.802;4.350;2023-06-14T12:06:57;7.57;;;3.58;;
22490;SDS011;11412;50.802;4.350;2023-06-14T12:12:22;5.22;;;3.92;;
22490;SDS011;11412;50.802;4.350;2023-06-14T12:14:52;4.53;;;3.65;;
22490;SDS011;11412;50.802;4.350;2023-06-14T12:17:18;9.98;;;3.97;;
22490;SDS011;11412;50.802;4.350;2023-06-14T12:19:45;10.50;;;4.38;;
22490;SDS011;11412;50.802;4.350;2023-06-14T12:22:13;12.45;;;4.32;;
22490;SDS011;11412;50.802;4.350;2023-06-14T12:24:39;7.38;;;4.03;;
22490;SDS011;11412;50.802;4.350;2023-06-14T12:27:08;6.18;;;3.75;;
22490;SDS011;11412;50.802;4.350;2023-06-14T12:29:36;9.82;;;3.60;;
22490;SDS011;11412;50.802;4.350;2023-06-14T12:32:02;6.10;;;3.80;;
22490;SDS011;11412;50.802;4.350;2023-06-14T12:34:28;6.97;;;3.50;;
22490;SDS011;11412;50.802;4.350;2023-06-14T12:36:54;3.83;;;3.40;;
22490;SDS011;11412;50.802;4.350;2023-06-14T12:39:20;3.80;;;3.53;;
22490;SDS011;11412;50.802;4.350;2023-06-14T12:41:47;4.32;;;3.92;;
22490;SDS011;11412;50.802;4.350;2023-06-14T12:44:13;3.90;;;3.60;;
22490;SDS011;11412;50.802;4.350;2023-06-14T12:46:40;4.40;;;3.30;;
22490;SDS011;11412;50.802;4.350;2023-06-14T12:49:10;9.77;;;4.00;;
22490;SDS011;11412;50.802;4.350;2023-06-14T12:51:37;5.85;;;3.70;;
22490;SDS011;11412;50.802;4.350;2023-06-14T12:54:03;6.32;;;3.20;;
22490;SDS011;11412;50.802;4.350;2023-06-14T12:56:29;4.18;;;3.72;;
22490;SDS011;11412;50.802;4.350;2023-06-14T12:58:55;6.18;;;3.30;;
22490;SDS011;11412;50.802;4.350;2023-06-14T13:01:21;4.30;;;3.53;;
22490;SDS011;11412;50.802;4.350;2023-06-14T13:03:47;4.93;;;3.58;;
22490;SDS011;11412;50.802;4.350;2023-06-14T13:06:13;4.03;;;3.58;;
22490;SDS011;11412;50.802;4.350;2023-06-14T13:08:39;5.13;;;3.20;;
22490;SDS011;11412;50.802;4.350;2023-06-14T13:11:04;4.68;;;3.95;;
22490;SDS011;11412;50.802;4.350;2023-06-14T13:13:30;3.67;;;3.38;;
22490;SDS011;11412;50.802;4.350;2023-06-14T13:15:56;8.63;;;3.47;;
22490;SDS011;11412;50.802;4.350;2023-06-14T13:18:21;6.05;;;3.40;;
22490;SDS011;11412;50.802;4.350;2023-06-14T13:20:47;5.78;;;3.42;;
22490;SDS011;11412;50.802;4.350;2023-06-14T13:23:13;7.97;;;3.75;;
22490;SDS011;11412;50.802;4.350;2023-06-14T13:25:39;7.55;;;3.67;;
22490;SDS011;11412;50.802;4.350;2023-06-14T13:28:04;4.45;;;3.30;;
22490;SDS011;11412;50.802;4.350;2023-06-14T13:30:30;3.75;;;3.45;;
22490;SDS011;11412;50.802;4.350;2023-06-14T13:32:57;5.53;;;3.20;;
22490;SDS011;11412;50.802;4.350;2023-06-14T13:35:23;3.58;;;2.70;;
22490;SDS011;11412;50.802;4.350;2023-06-14T13:37:49;3.95;;;2.75;;
22490;SDS011;11412;50.802;4.350;2023-06-14T13:40:15;6.57;;;2.97;;
22490;SDS011;11412;50.802;4.350;2023-06-14T13:42:41;3.08;;;2.80;;
22490;SDS011;11412;50.802;4.350;2023-06-14T13:45:07;5.50;;;3.03;;
22490;SDS011;11412;50.802;4.350;2023-06-14T13:47:34;5.40;;;3.08;;
22490;SDS011;11412;50.802;4.350;2023-06-14T13:50:00;3.72;;;3.15;;
22490;SDS011;11412;50.802;4.350;2023-06-14T13:52:25;4.60;;;2.60;;
22490;SDS011;11412;50.802;4.350;2023-06-14T13:54:51;4.45;;;2.80;;
22490;SDS011;11412;50.802;4.350;2023-06-14T13:57:17;2.58;;;2.38;;
22490;SDS011;11412;50.802;4.350;2023-06-14T13:59:43;8.85;;;2.90;;
22490;SDS011;11412;50.802;4.350;2023-06-14T14:02:12;6.22;;;2.20;;
22490;SDS011;11412;50.802;4.350;2023-06-14T14:04:38;3.28;;;2.97;;
22490;SDS011;11412;50.802;4.350;2023-06-14T14:07:05;4.95;;;2.28;;
22490;SDS011;11412;50.802;4.350;2023-06-14T14:09:31;3.78;;;2.38;;
22490;SDS011;11412;50.802;4.350;2023-06-14T14:11:59;7.38;;;2.30;;
22490;SDS011;11412;50.802;4.350;2023-06-14T14:14:25;4.07;;;2.45;;
22490;SDS011;11412;50.802;4.350;2023-06-14T14:16:52;2.90;;;2.42;;
22490;SDS011;11412;50.802;4.350;2023-06-14T14:19:19;2.70;;;2.45;;
22490;SDS011;11412;50.802;4.350;2023-06-14T14:21:48;2.60;;;2.40;;
22490;SDS011;11412;50.802;4.350;2023-06-14T14:24:13;4.25;;;2.25;;
22490;SDS011;11412;50.802;4.350;2023-06-14T14:26:39;4.38;;;1.88;;
22490;SDS011;11412;50.802;4.350;2023-06-14T14:29:05;2.50;;;2.30;;
22490;SDS011;11412;50.802;4.350;2023-06-14T14:31:31;7.45;;;2.30;;
22490;SDS011;11412;50.802;4.350;2023-06-14T14:33:57;3.63;;;2.08;;
22490;SDS011;11412;50.802;4.350;2023-06-14T14:36:23;2.08;;;1.90;;
22490;SDS011;11412;50.802;4.350;2023-06-14T14:38:48;4.65;;;2.10;;
22490;SDS011;11412;50.802;4.350;2023-06-14T14:41:16;1.83;;;1.70;;
22490;SDS011;11412;50.802;4.350;2023-06-14T14:43:42;2.53;;;1.85;;
22490;SDS011;11412;50.802;4.350;2023-06-14T14:46:08;1.83;;;1.70;;
22490;SDS011;11412;50.802;4.350;2023-06-14T14:48:34;2.58;;;1.67;;
22490;SDS011;11412;50.802;4.350;2023-06-14T14:51:00;2.75;;;1.70;;
22490;SDS011;11412;50.802;4.350;2023-06-14T14:53:25;1.92;;;1.65;;
22490;SDS011;11412;50.802;4.350;2023-06-14T14:55:51;5.32;;;1.88;;
22490;SDS011;11412;50.802;4.350;2023-06-14T14:58:17;3.92;;;1.42;;
22490;SDS011;11412;50.802;4.350;2023-06-14T15:00:44;3.78;;;1.70;;
22490;SDS011;11412;50.802;4.350;2023-06-14T15:03:10;1.58;;;1.40;;
22490;SDS011;11412;50.802;4.350;2023-06-14T15:05:36;2.22;;;1.80;;
22490;SDS011;11412;50.802;4.350;2023-06-14T15:08:04;1.70;;;1.60;;
22490;SDS011;11412;50.802;4.350;2023-06-14T15:10:36;2.05;;;1.65;;
22490;SDS011;11412;50.802;4.350;2023-06-14T15:13:08;1.90;;;1.55;;
22490;SDS011;11412;50.802;4.350;2023-06-14T15:15:35;2.38;;;1.60;;